Home > Products > Valid Products > TAF

000
FTUS43 KMQT 292320
TAFCMX
TAF
KCMX 292320Z 3000/3024 26005KT P6SM SKC
     FM301300 23008KT P6SM FEW140
     FM301500 24012KT P6SM SKC=



000
FTUS43 KMQT 292320
TAFSAW
TAF
KSAW 292320Z 3000/3024 17003KT P6SM FEW060
     FM300500 20004KT P6SM SKC
     FM301000 22003KT 5SM BR FEW060
     FM301300 22005KT P6SM FEW100
     FM301600 22009KT P6SM FEW140=



000
FTUS43 KMQT 292320
TAFCMX
TAF
KCMX 292320Z 3000/3024 26005KT P6SM SKC
     FM301300 23008KT P6SM FEW140
     FM301500 24012KT P6SM SKC=



000
FTUS43 KMQT 292320
TAFSAW
TAF
KSAW 292320Z 3000/3024 17003KT P6SM FEW060
     FM300500 20004KT P6SM SKC
     FM301000 22003KT 5SM BR FEW060
     FM301300 22005KT P6SM FEW100
     FM301600 22009KT P6SM FEW140=



000
FTUS43 KMQT 291727
TAFCMX
TAF
KCMX 291727Z 2918/3018 27011KT P6SM BKN060
     FM292300 27005KT P6SM FEW060
     FM300200 00000KT P6SM SKC
     FM301300 23007KT P6SM FEW150
     FM301600 24012G18KT P6SM SKC=



000
FTUS43 KMQT 291727
TAFSAW
TAF
KSAW 291727Z 2918/3018 28006KT P6SM SCT045
     FM292000 35003KT P6SM SCT050
     FM292200 00000KT P6SM FEW070
     FM300900 22003KT 5SM BR FEW025
     FM301300 22005KT P6SM FEW030=



000
FTUS43 KMQT 291727
TAFSAW
TAF
KSAW 291727Z 2918/3018 28006KT P6SM SCT045
     FM292000 35003KT P6SM SCT050
     FM292200 00000KT P6SM FEW070
     FM300900 22003KT 5SM BR FEW025
     FM301300 22005KT P6SM FEW030=



000
FTUS43 KMQT 291727
TAFCMX
TAF
KCMX 291727Z 2918/3018 27011KT P6SM BKN060
     FM292300 27005KT P6SM FEW060
     FM300200 00000KT P6SM SKC
     FM301300 23007KT P6SM FEW150
     FM301600 24012G18KT P6SM SKC=



000
FTUS43 KMQT 291138
TAFCMX
TAF
KCMX 291138Z 2912/3012 27010KT P6SM VCSH BKN070
     FM291500 27012KT P6SM SCT110
     FM292300 VRB05KT P6SM SKC
     FM300800 21005KT P6SM FEW150=



000
FTUS43 KMQT 291138
TAFSAW
TAF
KSAW 291138Z 2912/3012 22007KT P6SM BKN080
     FM291900 18006KT P6SM SCT080
     FM300900 22004KT 5SM BR FEW150=



000
FTUS43 KMQT 291059 AAB
TAFCMX
TAF AMD
KCMX 291059Z 2911/3006 27010KT P6SM VCSH SCT015 BKN100
     FM291300 27012KT P6SM SCT025 BKN090
     FM291500 25008KT P6SM SCT070
     FM292200 29004KT P6SM FEW200=



000
FTUS43 KMQT 291059 AAB
TAFCMX
TAF AMD
KCMX 291059Z 2911/3006 27010KT P6SM VCSH SCT015 BKN100
     FM291300 27012KT P6SM SCT025 BKN090
     FM291500 25008KT P6SM SCT070
     FM292200 29004KT P6SM FEW200=



000
FTUS43 KMQT 290746 AAA
TAFCMX
TAF AMD
KCMX 290746Z 2908/3006 29015KT P6SM VCSH SCT015 BKN080
      TEMPO 2908/2910 5SM -SHRA BKN015 OVC030
     FM291000 VRB06KT P6SM VCSH BKN025
     FM291200 24007KT P6SM SCT025 BKN090
     FM291400 25008KT P6SM SCT070
     FM292200 29004KT P6SM FEW200=



000
FTUS43 KMQT 290527
TAFCMX
TAF
KCMX 290527Z 2906/3006 25008KT P6SM BKN090
     FM290700 25008KT P6SM VCSH BKN090
     FM290900 24007KT P6SM BKN090
     FM291400 25008KT P6SM SCT070
     FM292200 29004KT P6SM FEW200=



000
FTUS43 KMQT 290527
TAFSAW
TAF
KSAW 290527Z 2906/3006 23008KT P6SM BKN130
     FM291400 21006KT P6SM BKN045
     FM291600 21006KT P6SM BKN070
     FM291700 20006KT P6SM SCT070
     FM292300 00000KT P6SM SCT100=



000
FTUS43 KMQT 290527
TAFSAW
TAF
KSAW 290527Z 2906/3006 23008KT P6SM BKN130
     FM291400 21006KT P6SM BKN045
     FM291600 21006KT P6SM BKN070
     FM291700 20006KT P6SM SCT070
     FM292300 00000KT P6SM SCT100=



000
FTUS43 KMQT 290527
TAFCMX
TAF
KCMX 290527Z 2906/3006 25008KT P6SM BKN090
     FM290700 25008KT P6SM VCSH BKN090
     FM290900 24007KT P6SM BKN090
     FM291400 25008KT P6SM SCT070
     FM292200 29004KT P6SM FEW200=



000
FTUS43 KMQT 282323 AAB
TAFCMX
TAF AMD
KCMX 282323Z 2823/2924 29004KT P6SM VCSH BKN050
     FM290300 23006KT P6SM VCSH BKN060
     FM290800 24007KT P6SM BKN060
     FM291000 23006KT P6SM BKN035
     FM291600 26008KT P6SM SCT060
     FM291900 27007KT P6SM FEW110=



000
FTUS43 KMQT 282323 AAA
TAFSAW
TAF AMD
KSAW 282323Z 2823/2924 22010KT P6SM BKN100
     FM290900 22006KT P6SM BKN030
     FM291500 21006KT P6SM BKN026
     FM291700 20006KT P6SM SCT030
     FM292000 18004KT P6SM SCT060=



000
FTUS43 KMQT 282323 AAA
TAFSAW
TAF AMD
KSAW 282323Z 2823/2924 22010KT P6SM BKN100
     FM290900 22006KT P6SM BKN030
     FM291500 21006KT P6SM BKN026
     FM291700 20006KT P6SM SCT030
     FM292000 18004KT P6SM SCT060=



000
FTUS43 KMQT 282323 AAB
TAFCMX
TAF AMD
KCMX 282323Z 2823/2924 29004KT P6SM VCSH BKN050
     FM290300 23006KT P6SM VCSH BKN060
     FM290800 24007KT P6SM BKN060
     FM291000 23006KT P6SM BKN035
     FM291600 26008KT P6SM SCT060
     FM291900 27007KT P6SM FEW110=



000
FTUS43 KMQT 282107 AAA
TAFCMX
TAF AMD
KCMX 282107Z 2821/2918 24007KT P6SM BKN025
     FM282300 24006KT P6SM SCT030=



000
FTUS43 KMQT 281738 CCA
TAFCMX
TAF COR
KCMX 281738Z 2818/2918 24007KT P6SM BKN025
     FM282000 24006KT P6SM SCT030=



000
FTUS43 KMQT 281737
TAFCMX
TAF
KCMX 281737Z 2818/2918 24007KT P6SM SCT040=



000
FTUS43 KMQT 281737
TAFSAW
TAF
KSAW 281737Z 2818/2918 22012KT P6SM SCT070
     FM290800 21006KT P6SM BKN060
     FM290900 21005KT P6SM BKN025
     FM291200 20004KT P6SM BKN015
     FM291700 18005KT P6SM SCT025=



000
FTUS43 KMQT 281128
TAFCMX
TAF
KCMX 281128Z 2812/2912 24007KT P6SM SCT050 BKN100=



000
FTUS43 KMQT 281128
TAFSAW
TAF
KSAW 281128Z 2812/2912 22008KT P6SM SCT050 BKN100
     FM290900 21006KT P6SM BKN030=



000
FTUS43 KMQT 281128
TAFCMX
TAF
KCMX 281128Z 2812/2912 24007KT P6SM SCT050 BKN100=



000
FTUS43 KMQT 281128
TAFSAW
TAF
KSAW 281128Z 2812/2912 22008KT P6SM SCT050 BKN100
     FM290900 21006KT P6SM BKN030=



000
FTUS43 KMQT 280535
TAFCMX
TAF
KCMX 280535Z 2806/2906 25005KT P6SM SCT100
     FM281900 25010G15KT P6SM SCT100
     FM290000 21004KT P6SM BKN100=



000
FTUS43 KMQT 280535
TAFCMX
TAF
KCMX 280535Z 2806/2906 25005KT P6SM SCT100
     FM281900 25010G15KT P6SM SCT100
     FM290000 21004KT P6SM BKN100=



000
FTUS43 KMQT 280535
TAFSAW
TAF
KSAW 280535Z 2806/2906 20005KT P6SM SCT100
     FM281700 22009KT P6SM BKN150
     FM290000 19010KT P6SM BKN100=



000
FTUS43 KMQT 280535
TAFSAW
TAF
KSAW 280535Z 2806/2906 20005KT P6SM SCT100
     FM281700 22009KT P6SM BKN150
     FM290000 19010KT P6SM BKN100=



000
FTUS43 KMQT 272320
TAFSAW
TAF
KSAW 272320Z 2800/2824 18007KT P6SM SKC
     FM280900 20003KT P6SM SCT150
     FM281400 22007KT P6SM BKN100=



000
FTUS43 KMQT 272320
TAFCMX
TAF
KCMX 272320Z 2800/2824 11004KT P6SM SKC
     FM280500 21004KT P6SM FEW150
     FM281500 25008KT P6SM BKN060
     FM281900 25010G15KT P6SM SCT110
     FM282300 21005KT P6SM SCT080=



000
FTUS43 KMQT 272320
TAFSAW
TAF
KSAW 272320Z 2800/2824 18007KT P6SM SKC
     FM280900 20003KT P6SM SCT150
     FM281400 22007KT P6SM BKN100=



000
FTUS43 KMQT 272320
TAFCMX
TAF
KCMX 272320Z 2800/2824 11004KT P6SM SKC
     FM280500 21004KT P6SM FEW150
     FM281500 25008KT P6SM BKN060
     FM281900 25010G15KT P6SM SCT110
     FM282300 21005KT P6SM SCT080=



000
FTUS43 KMQT 271723
TAFCMX
TAF
KCMX 271723Z 2718/2818 09006KT P6SM FEW250
     FM280500 25006KT P6SM FEW150=



000
FTUS43 KMQT 271723
TAFCMX
TAF
KCMX 271723Z 2718/2818 09006KT P6SM FEW250
     FM280500 25006KT P6SM FEW150=



000
FTUS43 KMQT 271723
TAFSAW
TAF
KSAW 271723Z 2718/2818 18007KT P6SM FEW250
     FM281300 21007KT P6SM SCT060=



000
FTUS43 KMQT 271723
TAFSAW
TAF
KSAW 271723Z 2718/2818 18007KT P6SM FEW250
     FM281300 21007KT P6SM SCT060=



000
FTUS43 KMQT 271151 CCA
TAFSAW
TAF COR
KSAW 271151Z 2712/2812 VRB03KT 3SM BR SKC
      TEMPO 2712/2713 1/2SM FG VV002
     FM271400 VRB03KT P6SM FEW250
     FM271800 18006KT P6SM FEW250
     FM281000 21005KT P6SM SCT050=



000
FTUS43 KMQT 271151 CCA
TAFSAW
TAF COR
KSAW 271151Z 2712/2812 VRB03KT 3SM BR SKC
      TEMPO 2712/2713 1/2SM FG VV002
     FM271400 VRB03KT P6SM FEW250
     FM271800 18006KT P6SM FEW250
     FM281000 21005KT P6SM SCT050=



000
FTUS43 KMQT 271129
TAFSAW
TAF
KSAW 271129Z 2712/2812 VRB03KT 3SM BR SKC
      TEMPO 2712/2713 1/2SM FG VV002
     FM271800 18006KT P6SM FEW250
     FM281000 21005KT P6SM SCT050=



000
FTUS43 KMQT 271129
TAFCMX
TAF
KCMX 271129Z 2712/2812 22003KT P6SM SCT200
     FM271700 16006KT P6SM FEW250
     FM280500 21005KT P6SM SCT140=



000
FTUS43 KMQT 271129
TAFCMX
TAF
KCMX 271129Z 2712/2812 22003KT P6SM SCT200
     FM271700 16006KT P6SM FEW250
     FM280500 21005KT P6SM SCT140=



000
FTUS43 KMQT 271129
TAFSAW
TAF
KSAW 271129Z 2712/2812 VRB03KT 3SM BR SKC
      TEMPO 2712/2713 1/2SM FG VV002
     FM271800 18006KT P6SM FEW250
     FM281000 21005KT P6SM SCT050=



000
FTUS43 KMQT 270528
TAFSAW
TAF
KSAW 270528Z 2706/2806 00000KT 3SM BR SKC
      TEMPO 2708/2712 1SM BR
     FM271300 VRB03KT P6SM FEW250
     FM271900 17006KT P6SM FEW250=



000
FTUS43 KMQT 270528
TAFCMX
TAF
KCMX 270528Z 2706/2806 30005KT P6SM SKC
     FM271700 16006KT P6SM FEW250
     FM272300 10005KT P6SM FEW250
     FM280300 17003KT P6SM SCT250=



000
FTUS43 KMQT 270528
TAFSAW
TAF
KSAW 270528Z 2706/2806 00000KT 3SM BR SKC
      TEMPO 2708/2712 1SM BR
     FM271300 VRB03KT P6SM FEW250
     FM271900 17006KT P6SM FEW250=



000
FTUS43 KMQT 270528
TAFCMX
TAF
KCMX 270528Z 2706/2806 30005KT P6SM SKC
     FM271700 16006KT P6SM FEW250
     FM272300 10005KT P6SM FEW250
     FM280300 17003KT P6SM SCT250=



    US Dept of Commerce
    National Oceanic and Atmospheric Administration
    National Weather Service
    1325 East West Highway
    Silver Spring, MD 20910
    Page Author: NWS Internet Services Team
Disclaimer
Information Quality
Credits
Glossary
Privacy Policy
Freedom of Information Act (FOIA)
About Us
Career Opportunities